sensor_id;sensor_type;location;lat;lon;timestamp;temperature;humidity
46378;DHT22;32083;47.360;9.650;2023-08-01T00:00:01;20.50;98.00
46378;DHT22;32083;47.360;9.650;2023-08-01T00:02:28;20.50;98.30
46378;DHT22;32083;47.360;9.650;2023-08-01T00:04:54;20.40;98.20
46378;DHT22;32083;47.360;9.650;2023-08-01T00:07:20;20.40;98.10
46378;DHT22;32083;47.360;9.650;2023-08-01T00:09:45;20.40;98.20
46378;DHT22;32083;47.360;9.650;2023-08-01T00:12:11;20.40;98.20
46378;DHT22;32083;47.360;9.650;2023-08-01T00:14:37;20.40;97.90
46378;DHT22;32083;47.360;9.650;2023-08-01T00:20:25;20.50;98.00
46378;DHT22;32083;47.360;9.650;2023-08-01T00:22:50;20.50;97.60
46378;DHT22;32083;47.360;9.650;2023-08-01T00:25:17;20.40;97.70
46378;DHT22;32083;47.360;9.650;2023-08-01T00:27:43;20.40;97.90
46378;DHT22;32083;47.360;9.650;2023-08-01T00:30:09;20.40;97.80
46378;DHT22;32083;47.360;9.650;2023-08-01T00:32:35;20.40;97.70
46378;DHT22;32083;47.360;9.650;2023-08-01T00:35:01;20.40;97.60
46378;DHT22;32083;47.360;9.650;2023-08-01T00:37:26;20.40;97.60
46378;DHT22;32083;47.360;9.650;2023-08-01T00:39:52;20.40;97.80
46378;DHT22;32083;47.360;9.650;2023-08-01T00:42:18;20.40;98.00
46378;DHT22;32083;47.360;9.650;2023-08-01T00:48:06;20.30;97.90
46378;DHT22;32083;47.360;9.650;2023-08-01T00:50:33;20.30;98.20
46378;DHT22;32083;47.360;9.650;2023-08-01T00:52:58;20.30;98.10
46378;DHT22;32083;47.360;9.650;2023-08-01T00:55:27;20.30;98.10
46378;DHT22;32083;47.360;9.650;2023-08-01T00:57:53;20.30;98.30
46378;DHT22;32083;47.360;9.650;2023-08-01T01:00:19;20.30;98.40
46378;DHT22;32083;47.360;9.650;2023-08-01T01:02:44;20.20;98.10
46378;DHT22;32083;47.360;9.650;2023-08-01T01:05:10;20.20;98.00
46378;DHT22;32083;47.360;9.650;2023-08-01T01:07:37;20.20;97.90
46378;DHT22;32083;47.360;9.650;2023-08-01T01:10:03;20.20;97.90
46378;DHT22;32083;47.360;9.650;2023-08-01T01:12:28;20.20;98.20
46378;DHT22;32083;47.360;9.650;2023-08-01T01:14:54;20.20;98.20
46378;DHT22;32083;47.360;9.650;2023-08-01T01:17:20;20.20;98.30
46378;DHT22;32083;47.360;9.650;2023-08-01T01:19:45;20.20;98.30
46378;DHT22;32083;47.360;9.650;2023-08-01T01:22:11;20.20;98.10
46378;DHT22;32083;47.360;9.650;2023-08-01T01:24:39;20.20;98.30
46378;DHT22;32083;47.360;9.650;2023-08-01T01:27:07;20.20;98.40
46378;DHT22;32083;47.360;9.650;2023-08-01T01:29:33;20.20;98.20
46378;DHT22;32083;47.360;9.650;2023-08-01T01:32:01;20.20;98.10
46378;DHT22;32083;47.360;9.650;2023-08-01T01:34:28;20.10;98.10
46378;DHT22;32083;47.360;9.650;2023-08-01T01:36:54;20.10;98.00
46378;DHT22;32083;47.360;9.650;2023-08-01T01:39:20;20.10;98.10
46378;DHT22;32083;47.360;9.650;2023-08-01T01:41:46;20.10;98.00
46378;DHT22;32083;47.360;9.650;2023-08-01T01:44:12;20.10;98.10
46378;DHT22;32083;47.360;9.650;2023-08-01T01:46:37;20.20;98.10
46378;DHT22;32083;47.360;9.650;2023-08-01T01:49:03;20.20;98.30
46378;DHT22;32083;47.360;9.650;2023-08-01T01:51:30;20.10;98.40
46378;DHT22;32083;47.360;9.650;2023-08-01T01:53:56;20.10;98.40
46378;DHT22;32083;47.360;9.650;2023-08-01T01:56:21;20.10;98.50
46378;DHT22;32083;47.360;9.650;2023-08-01T01:58:47;20.10;98.50
46378;DHT22;32083;47.360;9.650;2023-08-01T02:01:13;20.10;98.60
46378;DHT22;32083;47.360;9.650;2023-08-01T02:03:39;20.00;98.50
46378;DHT22;32083;47.360;9.650;2023-08-01T02:06:04;20.00;98.30
46378;DHT22;32083;47.360;9.650;2023-08-01T02:08:30;20.10;98.60
46378;DHT22;32083;47.360;9.650;2023-08-01T02:11:09;20.10;98.40
46378;DHT22;32083;47.360;9.650;2023-08-01T02:13:35;20.00;98.20
46378;DHT22;32083;47.360;9.650;2023-08-01T02:16:01;20.10;98.40
46378;DHT22;32083;47.360;9.650;2023-08-01T02:18:26;20.10;98.40
46378;DHT22;32083;47.360;9.650;2023-08-01T02:20:52;20.10;98.40
46378;DHT22;32083;47.360;9.650;2023-08-01T02:23:17;20.00;98.30
46378;DHT22;32083;47.360;9.650;2023-08-01T02:25:43;20.10;98.30
46378;DHT22;32083;47.360;9.650;2023-08-01T02:28:09;20.00;98.50
46378;DHT22;32083;47.360;9.650;2023-08-01T02:30:36;20.00;98.50
46378;DHT22;32083;47.360;9.650;2023-08-01T02:33:01;20.00;98.20
46378;DHT22;32083;47.360;9.650;2023-08-01T02:35:28;20.10;98.20
46378;DHT22;32083;47.360;9.650;2023-08-01T02:37:54;20.10;98.20
46378;DHT22;32083;47.360;9.650;2023-08-01T02:40:20;20.10;98.50
46378;DHT22;32083;47.360;9.650;2023-08-01T02:42:46;20.10;98.40
46378;DHT22;32083;47.360;9.650;2023-08-01T02:45:12;20.10;98.60
46378;DHT22;32083;47.360;9.650;2023-08-01T02:47:38;20.10;98.40
46378;DHT22;32083;47.360;9.650;2023-08-01T02:50:04;20.10;98.20
46378;DHT22;32083;47.360;9.650;2023-08-01T02:52:30;20.10;98.30
46378;DHT22;32083;47.360;9.650;2023-08-01T02:54:56;20.10;98.20
46378;DHT22;32083;47.360;9.650;2023-08-01T02:57:21;20.10;98.10
46378;DHT22;32083;47.360;9.650;2023-08-01T02:59:47;20.10;98.30
46378;DHT22;32083;47.360;9.650;2023-08-01T03:02:13;20.10;98.30
46378;DHT22;32083;47.360;9.650;2023-08-01T03:04:38;20.10;98.10
46378;DHT22;32083;47.360;9.650;2023-08-01T03:07:04;20.10;98.10
46378;DHT22;32083;47.360;9.650;2023-08-01T03:09:31;20.10;98.00
46378;DHT22;32083;47.360;9.650;2023-08-01T03:11:57;20.10;98.30
46378;DHT22;32083;47.360;9.650;2023-08-01T03:14:23;20.10;98.20
46378;DHT22;32083;47.360;9.650;2023-08-01T03:16:48;20.10;98.30
46378;DHT22;32083;47.360;9.650;2023-08-01T03:19:14;20.10;98.40
46378;DHT22;32083;47.360;9.650;2023-08-01T03:21:40;20.10;98.40
46378;DHT22;32083;47.360;9.650;2023-08-01T03:24:05;20.10;98.20
46378;DHT22;32083;47.360;9.650;2023-08-01T03:26:37;20.00;98.30
46378;DHT22;32083;47.360;9.650;2023-08-01T03:29:03;20.10;98.50
46378;DHT22;32083;47.360;9.650;2023-08-01T03:31:30;20.10;98.60
46378;DHT22;32083;47.360;9.650;2023-08-01T03:33:56;20.10;98.50
46378;DHT22;32083;47.360;9.650;2023-08-01T03:36:24;20.10;99.10
46378;DHT22;32083;47.360;9.650;2023-08-01T03:38:50;20.10;98.80
46378;DHT22;32083;47.360;9.650;2023-08-01T03:41:15;20.10;98.80
46378;DHT22;32083;47.360;9.650;2023-08-01T03:43:41;20.10;98.60
46378;DHT22;32083;47.360;9.650;2023-08-01T03:46:07;20.10;98.60
46378;DHT22;32083;47.360;9.650;2023-08-01T03:48:33;20.10;98.40
46378;DHT22;32083;47.360;9.650;2023-08-01T03:50:58;20.10;98.60
46378;DHT22;32083;47.360;9.650;2023-08-01T03:53:25;20.10;98.40
46378;DHT22;32083;47.360;9.650;2023-08-01T03:55:51;20.10;98.40
46378;DHT22;32083;47.360;9.650;2023-08-01T03:58:17;20.10;98.40
46378;DHT22;32083;47.360;9.650;2023-08-01T04:00:42;20.10;98.30
46378;DHT22;32083;47.360;9.650;2023-08-01T04:03:08;20.10;98.60
46378;DHT22;32083;47.360;9.650;2023-08-01T04:05:34;20.10;98.60
46378;DHT22;32083;47.360;9.650;2023-08-01T04:07:59;20.10;98.60
46378;DHT22;32083;47.360;9.650;2023-08-01T04:10:25;20.10;98.50
46378;DHT22;32083;47.360;9.650;2023-08-01T04:12:51;20.10;98.40
46378;DHT22;32083;47.360;9.650;2023-08-01T04:15:16;20.10;98.40
46378;DHT22;32083;47.360;9.650;2023-08-01T04:17:42;20.10;98.40
46378;DHT22;32083;47.360;9.650;2023-08-01T04:20:08;20.20;98.30
46378;DHT22;32083;47.360;9.650;2023-08-01T04:22:34;20.20;98.60
46378;DHT22;32083;47.360;9.650;2023-08-01T04:25:01;20.20;98.40
46378;DHT22;32083;47.360;9.650;2023-08-01T04:27:27;20.10;98.10
46378;DHT22;32083;47.360;9.650;2023-08-01T04:29:54;20.20;98.90
46378;DHT22;32083;47.360;9.650;2023-08-01T04:32:20;20.10;99.00
46378;DHT22;32083;47.360;9.650;2023-08-01T04:34:46;20.10;99.20
46378;DHT22;32083;47.360;9.650;2023-08-01T04:37:11;20.10;99.20
46378;DHT22;32083;47.360;9.650;2023-08-01T04:39:37;20.10;99.20
46378;DHT22;32083;47.360;9.650;2023-08-01T04:42:03;20.00;99.60
46378;DHT22;32083;47.360;9.650;2023-08-01T04:44:29;20.00;99.80
46378;DHT22;32083;47.360;9.650;2023-08-01T04:46:55;20.00;99.60
46378;DHT22;32083;47.360;9.650;2023-08-01T04:49:21;20.00;99.80
46378;DHT22;32083;47.360;9.650;2023-08-01T04:51:49;20.00;99.90
46378;DHT22;32083;47.360;9.650;2023-08-01T04:54:15;19.90;99.90
46378;DHT22;32083;47.360;9.650;2023-08-01T04:56:42;19.90;99.90
46378;DHT22;32083;47.360;9.650;2023-08-01T04:59:07;19.90;99.90
46378;DHT22;32083;47.360;9.650;2023-08-01T05:01:33;19.80;99.90
46378;DHT22;32083;47.360;9.650;2023-08-01T05:03:59;19.80;99.90
46378;DHT22;32083;47.360;9.650;2023-08-01T05:06:25;19.80;99.90
46378;DHT22;32083;47.360;9.650;2023-08-01T05:08:50;19.80;99.90
46378;DHT22;32083;47.360;9.650;2023-08-01T05:11:16;19.70;99.90
46378;DHT22;32083;47.360;9.650;2023-08-01T05:13:42;19.70;99.90
46378;DHT22;32083;47.360;9.650;2023-08-01T05:16:07;19.70;99.90
46378;DHT22;32083;47.360;9.650;2023-08-01T05:18:33;19.60;99.90
46378;DHT22;32083;47.360;9.650;2023-08-01T05:20:58;19.50;99.90
46378;DHT22;32083;47.360;9.650;2023-08-01T05:23:24;19.30;99.90
46378;DHT22;32083;47.360;9.650;2023-08-01T05:25:50;19.30;99.90
46378;DHT22;32083;47.360;9.650;2023-08-01T05:28:15;19.40;99.90
46378;DHT22;32083;47.360;9.650;2023-08-01T05:30:41;19.50;99.90
46378;DHT22;32083;47.360;9.650;2023-08-01T05:33:07;19.50;99.90
46378;DHT22;32083;47.360;9.650;2023-08-01T05:35:32;19.50;99.90
46378;DHT22;32083;47.360;9.650;2023-08-01T05:37:58;19.60;99.90
46378;DHT22;32083;47.360;9.650;2023-08-01T05:40:25;19.60;99.90
46378;DHT22;32083;47.360;9.650;2023-08-01T05:42:51;19.60;99.90
46378;DHT22;32083;47.360;9.650;2023-08-01T05:45:16;19.60;99.90
46378;DHT22;32083;47.360;9.650;2023-08-01T05:47:42;19.60;99.90
46378;DHT22;32083;47.360;9.650;2023-08-01T05:50:08;19.70;99.90
46378;DHT22;32083;47.360;9.650;2023-08-01T05:52:34;19.70;99.60
46378;DHT22;32083;47.360;9.650;2023-08-01T05:55:00;19.70;99.90
46378;DHT22;32083;47.360;9.650;2023-08-01T05:57:26;19.70;99.50
46378;DHT22;32083;47.360;9.650;2023-08-01T05:59:51;19.70;99.80
46378;DHT22;32083;47.360;9.650;2023-08-01T06:02:17;19.60;99.90
46378;DHT22;32083;47.360;9.650;2023-08-01T06:04:43;19.60;99.90
46378;DHT22;32083;47.360;9.650;2023-08-01T06:07:08;19.60;99.90
46378;DHT22;32083;47.360;9.650;2023-08-01T06:09:34;19.60;99.80
46378;DHT22;32083;47.360;9.650;2023-08-01T06:12:00;19.60;99.80
46378;DHT22;32083;47.360;9.650;2023-08-01T06:14:25;19.60;99.80
46378;DHT22;32083;47.360;9.650;2023-08-01T06:16:55;19.70;99.90
46378;DHT22;32083;47.360;9.650;2023-08-01T06:19:21;19.70;99.90
46378;DHT22;32083;47.360;9.650;2023-08-01T06:21:51;19.70;99.90
46378;DHT22;32083;47.360;9.650;2023-08-01T06:24:22;19.60;99.90
46378;DHT22;32083;47.360;9.650;2023-08-01T06:26:48;19.70;99.90
46378;DHT22;32083;47.360;9.650;2023-08-01T06:29:33;19.70;99.90
46378;DHT22;32083;47.360;9.650;2023-08-01T06:32:00;19.70;99.90
46378;DHT22;32083;47.360;9.650;2023-08-01T06:34:43;19.80;99.90
46378;DHT22;32083;47.360;9.650;2023-08-01T06:37:18;19.80;99.90
46378;DHT22;32083;47.360;9.650;2023-08-01T06:39:59;19.70;99.90
46378;DHT22;32083;47.360;9.650;2023-08-01T06:42:53;19.60;99.90
46378;DHT22;32083;47.360;9.650;2023-08-01T06:45:50;19.70;99.90
46378;DHT22;32083;47.360;9.650;2023-08-01T06:48:23;19.70;99.90
46378;DHT22;32083;47.360;9.650;2023-08-01T06:51:19;19.80;99.90
46378;DHT22;32083;47.360;9.650;2023-08-01T06:54:05;19.80;99.90
46378;DHT22;32083;47.360;9.650;2023-08-01T06:56:35;19.70;99.90
46378;DHT22;32083;47.360;9.650;2023-08-01T06:59:30;19.70;99.80
46378;DHT22;32083;47.360;9.650;2023-08-01T07:02:09;19.60;99.80
46378;DHT22;32083;47.360;9.650;2023-08-01T07:04:41;19.70;99.90
46378;DHT22;32083;47.360;9.650;2023-08-01T07:07:28;19.70;99.90
46378;DHT22;32083;47.360;9.650;2023-08-01T07:10:00;19.80;99.90
46378;DHT22;32083;47.360;9.650;2023-08-01T07:12:43;19.80;99.80
46378;DHT22;32083;47.360;9.650;2023-08-01T07:15:37;19.80;99.80
46378;DHT22;32083;47.360;9.650;2023-08-01T07:18:33;19.80;99.70
46378;DHT22;32083;47.360;9.650;2023-08-01T07:21:32;20.00;99.80
46378;DHT22;32083;47.360;9.650;2023-08-01T07:24:45;20.00;99.80
46378;DHT22;32083;47.360;9.650;2023-08-01T07:27:24;20.10;99.60
46378;DHT22;32083;47.360;9.650;2023-08-01T07:29:54;20.10;98.60
46378;DHT22;32083;47.360;9.650;2023-08-01T07:32:23;20.20;98.60
46378;DHT22;32083;47.360;9.650;2023-08-01T07:34:57;20.20;98.50
46378;DHT22;32083;47.360;9.650;2023-08-01T07:37:29;20.30;98.70
46378;DHT22;32083;47.360;9.650;2023-08-01T07:40:00;20.30;99.50
46378;DHT22;32083;47.360;9.650;2023-08-01T07:42:27;20.40;99.90
46378;DHT22;32083;47.360;9.650;2023-08-01T07:45:08;20.40;99.90
46378;DHT22;32083;47.360;9.650;2023-08-01T07:48:08;20.40;99.90
46378;DHT22;32083;47.360;9.650;2023-08-01T07:51:18;20.30;99.90
46378;DHT22;32083;47.360;9.650;2023-08-01T07:54:14;20.20;99.90
46378;DHT22;32083;47.360;9.650;2023-08-01T07:56:40;20.20;99.90
46378;DHT22;32083;47.360;9.650;2023-08-01T07:59:06;20.10;99.90
46378;DHT22;32083;47.360;9.650;2023-08-01T08:01:32;20.10;99.90
46378;DHT22;32083;47.360;9.650;2023-08-01T08:03:57;20.10;99.90
46378;DHT22;32083;47.360;9.650;2023-08-01T08:06:23;20.00;99.90
46378;DHT22;32083;47.360;9.650;2023-08-01T08:08:49;20.00;99.90
46378;DHT22;32083;47.360;9.650;2023-08-01T08:11:15;20.00;99.90
46378;DHT22;32083;47.360;9.650;2023-08-01T08:13:42;19.90;99.90
46378;DHT22;32083;47.360;9.650;2023-08-01T08:16:08;20.00;99.90
46378;DHT22;32083;47.360;9.650;2023-08-01T08:18:34;19.90;99.90
46378;DHT22;32083;47.360;9.650;2023-08-01T08:21:00;20.00;99.90
46378;DHT22;32083;47.360;9.650;2023-08-01T08:23:26;20.00;99.90
46378;DHT22;32083;47.360;9.650;2023-08-01T08:25:53;19.90;99.90
46378;DHT22;32083;47.360;9.650;2023-08-01T08:28:30;20.00;99.90
46378;DHT22;32083;47.360;9.650;2023-08-01T08:30:56;20.00;99.90
46378;DHT22;32083;47.360;9.650;2023-08-01T08:33:22;20.00;99.90
46378;DHT22;32083;47.360;9.650;2023-08-01T08:35:49;20.00;99.90
46378;DHT22;32083;47.360;9.650;2023-08-01T08:38:16;20.00;99.90
46378;DHT22;32083;47.360;9.650;2023-08-01T08:41:06;20.00;99.90
46378;DHT22;32083;47.360;9.650;2023-08-01T08:43:34;20.10;99.90
46378;DHT22;32083;47.360;9.650;2023-08-01T08:46:02;20.10;99.90
46378;DHT22;32083;47.360;9.650;2023-08-01T08:48:28;20.20;99.90
46378;DHT22;32083;47.360;9.650;2023-08-01T08:50:57;20.20;99.90
46378;DHT22;32083;47.360;9.650;2023-08-01T08:53:25;20.20;99.90
46378;DHT22;32083;47.360;9.650;2023-08-01T08:55:51;20.20;99.90
46378;DHT22;32083;47.360;9.650;2023-08-01T08:58:17;20.20;99.90
46378;DHT22;32083;47.360;9.650;2023-08-01T09:00:44;20.20;99.90
46378;DHT22;32083;47.360;9.650;2023-08-01T09:03:10;20.20;99.90
46378;DHT22;32083;47.360;9.650;2023-08-01T09:05:54;20.10;99.90
46378;DHT22;32083;47.360;9.650;2023-08-01T09:08:26;20.20;99.90
46378;DHT22;32083;47.360;9.650;2023-08-01T09:10:54;20.10;99.90
46378;DHT22;32083;47.360;9.650;2023-08-01T09:13:19;20.20;99.90
46378;DHT22;32083;47.360;9.650;2023-08-01T09:15:46;20.10;99.90
46378;DHT22;32083;47.360;9.650;2023-08-01T09:18:13;20.20;99.90
46378;DHT22;32083;47.360;9.650;2023-08-01T09:20:44;20.20;99.90
46378;DHT22;32083;47.360;9.650;2023-08-01T09:23:10;20.10;99.90
46378;DHT22;32083;47.360;9.650;2023-08-01T09:25:39;20.20;99.90
46378;DHT22;32083;47.360;9.650;2023-08-01T09:28:28;20.10;99.90
46378;DHT22;32083;47.360;9.650;2023-08-01T09:31:11;20.20;99.90
46378;DHT22;32083;47.360;9.650;2023-08-01T09:33:41;20.20;99.90
46378;DHT22;32083;47.360;9.650;2023-08-01T09:36:09;20.20;99.90
46378;DHT22;32083;47.360;9.650;2023-08-01T09:38:36;20.30;99.90
46378;DHT22;32083;47.360;9.650;2023-08-01T09:41:06;20.30;99.90
46378;DHT22;32083;47.360;9.650;2023-08-01T09:43:36;20.30;99.90
46378;DHT22;32083;47.360;9.650;2023-08-01T09:46:03;20.30;99.90
46378;DHT22;32083;47.360;9.650;2023-08-01T09:48:32;20.30;99.90
46378;DHT22;32083;47.360;9.650;2023-08-01T09:51:14;20.20;99.90
46378;DHT22;32083;47.360;9.650;2023-08-01T09:53:53;20.00;99.90
46378;DHT22;32083;47.360;9.650;2023-08-01T09:56:24;19.80;99.90
46378;DHT22;32083;47.360;9.650;2023-08-01T09:58:53;19.80;99.90
46378;DHT22;32083;47.360;9.650;2023-08-01T10:01:20;19.80;99.90
46378;DHT22;32083;47.360;9.650;2023-08-01T10:03:48;19.80;99.90
46378;DHT22;32083;47.360;9.650;2023-08-01T10:06:29;19.80;99.90
46378;DHT22;32083;47.360;9.650;2023-08-01T10:08:58;19.70;99.90
46378;DHT22;32083;47.360;9.650;2023-08-01T10:11:26;19.80;99.90
46378;DHT22;32083;47.360;9.650;2023-08-01T10:13:56;19.90;99.90
46378;DHT22;32083;47.360;9.650;2023-08-01T10:16:23;19.80;99.90
46378;DHT22;32083;47.360;9.650;2023-08-01T10:18:50;19.90;99.90
46378;DHT22;32083;47.360;9.650;2023-08-01T10:21:17;20.00;99.90
46378;DHT22;32083;47.360;9.650;2023-08-01T10:23:47;20.00;99.90
46378;DHT22;32083;47.360;9.650;2023-08-01T10:26:14;19.90;99.90
46378;DHT22;32083;47.360;9.650;2023-08-01T10:28:49;20.00;99.90
46378;DHT22;32083;47.360;9.650;2023-08-01T10:31:17;20.00;99.90
46378;DHT22;32083;47.360;9.650;2023-08-01T10:33:48;20.00;99.90
46378;DHT22;32083;47.360;9.650;2023-08-01T10:36:20;20.10;99.90
46378;DHT22;32083;47.360;9.650;2023-08-01T10:38:52;20.10;99.90
46378;DHT22;32083;47.360;9.650;2023-08-01T10:43:45;20.10;99.90
46378;DHT22;32083;47.360;9.650;2023-08-01T10:46:11;20.20;99.90
46378;DHT22;32083;47.360;9.650;2023-08-01T10:48:51;20.20;99.90
46378;DHT22;32083;47.360;9.650;2023-08-01T10:51:17;20.20;99.90
46378;DHT22;32083;47.360;9.650;2023-08-01T10:53:43;20.30;99.90
46378;DHT22;32083;47.360;9.650;2023-08-01T10:56:20;20.30;99.90
46378;DHT22;32083;47.360;9.650;2023-08-01T10:58:47;20.50;99.90
46378;DHT22;32083;47.360;9.650;2023-08-01T11:01:13;20.40;99.10
46378;DHT22;32083;47.360;9.650;2023-08-01T11:03:40;20.40;98.50
46378;DHT22;32083;47.360;9.650;2023-08-01T11:06:07;20.40;99.30
46378;DHT22;32083;47.360;9.650;2023-08-01T11:08:35;20.40;98.50
46378;DHT22;32083;47.360;9.650;2023-08-01T11:11:02;20.40;99.50
46378;DHT22;32083;47.360;9.650;2023-08-01T11:13:29;20.30;99.00
46378;DHT22;32083;47.360;9.650;2023-08-01T11:15:54;20.40;99.20
46378;DHT22;32083;47.360;9.650;2023-08-01T11:18:22;20.40;98.90
46378;DHT22;32083;47.360;9.650;2023-08-01T11:20:48;20.30;98.30
46378;DHT22;32083;47.360;9.650;2023-08-01T11:23:14;20.30;99.20
46378;DHT22;32083;47.360;9.650;2023-08-01T11:25:44;20.20;98.80
46378;DHT22;32083;47.360;9.650;2023-08-01T11:28:16;20.20;98.70
46378;DHT22;32083;47.360;9.650;2023-08-01T11:30:45;20.10;98.70
46378;DHT22;32083;47.360;9.650;2023-08-01T11:33:20;20.10;98.80
46378;DHT22;32083;47.360;9.650;2023-08-01T11:35:51;20.00;99.00
46378;DHT22;32083;47.360;9.650;2023-08-01T11:38:18;20.00;99.80
46378;DHT22;32083;47.360;9.650;2023-08-01T11:40:44;19.90;99.90
46378;DHT22;32083;47.360;9.650;2023-08-01T11:43:13;19.90;99.70
46378;DHT22;32083;47.360;9.650;2023-08-01T11:45:51;19.80;99.10
46378;DHT22;32083;47.360;9.650;2023-08-01T11:48:17;19.80;99.90
46378;DHT22;32083;47.360;9.650;2023-08-01T11:50:44;19.70;99.40
46378;DHT22;32083;47.360;9.650;2023-08-01T11:53:21;19.70;99.40
46378;DHT22;32083;47.360;9.650;2023-08-01T11:55:51;19.70;99.30
46378;DHT22;32083;47.360;9.650;2023-08-01T11:58:33;19.70;99.90
46378;DHT22;32083;47.360;9.650;2023-08-01T12:01:13;19.80;99.80
46378;DHT22;32083;47.360;9.650;2023-08-01T12:03:47;19.80;99.90
46378;DHT22;32083;47.360;9.650;2023-08-01T12:06:15;19.90;99.70
46378;DHT22;32083;47.360;9.650;2023-08-01T12:08:45;20.00;99.40
46378;DHT22;32083;47.360;9.650;2023-08-01T12:11:22;20.00;99.20
46378;DHT22;32083;47.360;9.650;2023-08-01T12:14:20;20.10;98.90
46378;DHT22;32083;47.360;9.650;2023-08-01T12:16:46;20.10;98.20
46378;DHT22;32083;47.360;9.650;2023-08-01T12:19:19;20.20;98.70
46378;DHT22;32083;47.360;9.650;2023-08-01T12:21:45;20.20;99.20
46378;DHT22;32083;47.360;9.650;2023-08-01T12:24:12;20.20;98.10
46378;DHT22;32083;47.360;9.650;2023-08-01T12:26:38;20.30;98.40
46378;DHT22;32083;47.360;9.650;2023-08-01T12:29:04;20.30;97.70
46378;DHT22;32083;47.360;9.650;2023-08-01T12:31:29;20.30;98.10
46378;DHT22;32083;47.360;9.650;2023-08-01T12:33:56;20.40;98.20
46378;DHT22;32083;47.360;9.650;2023-08-01T12:36:22;20.40;97.40
46378;DHT22;32083;47.360;9.650;2023-08-01T12:38:48;20.30;97.00
46378;DHT22;32083;47.360;9.650;2023-08-01T12:41:14;20.40;97.60
46378;DHT22;32083;47.360;9.650;2023-08-01T12:43:41;20.40;97.60
46378;DHT22;32083;47.360;9.650;2023-08-01T12:46:07;20.50;97.80
46378;DHT22;32083;47.360;9.650;2023-08-01T12:48:33;20.50;97.60
46378;DHT22;32083;47.360;9.650;2023-08-01T12:50:59;20.50;97.00
46378;DHT22;32083;47.360;9.650;2023-08-01T12:53:25;20.50;97.10
46378;DHT22;32083;47.360;9.650;2023-08-01T12:55:51;20.50;97.70
46378;DHT22;32083;47.360;9.650;2023-08-01T12:58:18;20.50;97.60
46378;DHT22;32083;47.360;9.650;2023-08-01T13:00:44;20.50;97.60
46378;DHT22;32083;47.360;9.650;2023-08-01T13:03:11;20.50;98.10
46378;DHT22;32083;47.360;9.650;2023-08-01T13:05:39;20.40;97.80
46378;DHT22;32083;47.360;9.650;2023-08-01T13:08:05;20.40;97.70
46378;DHT22;32083;47.360;9.650;2023-08-01T13:10:32;20.40;98.20
46378;DHT22;32083;47.360;9.650;2023-08-01T13:12:59;20.40;98.60
46378;DHT22;32083;47.360;9.650;2023-08-01T13:15:25;20.40;98.20
46378;DHT22;32083;47.360;9.650;2023-08-01T13:17:52;20.50;98.60
46378;DHT22;32083;47.360;9.650;2023-08-01T13:20:18;20.50;98.60
46378;DHT22;32083;47.360;9.650;2023-08-01T13:22:50;20.50;98.20
46378;DHT22;32083;47.360;9.650;2023-08-01T13:25:17;20.60;98.00
46378;DHT22;32083;47.360;9.650;2023-08-01T13:27:43;20.70;98.30
46378;DHT22;32083;47.360;9.650;2023-08-01T13:30:09;20.80;98.20
46378;DHT22;32083;47.360;9.650;2023-08-01T13:32:36;20.80;97.60
46378;DHT22;32083;47.360;9.650;2023-08-01T13:35:02;20.80;97.70
46378;DHT22;32083;47.360;9.650;2023-08-01T13:37:28;20.90;97.30
46378;DHT22;32083;47.360;9.650;2023-08-01T13:39:56;20.90;97.30
46378;DHT22;32083;47.360;9.650;2023-08-01T13:42:22;21.00;97.20
46378;DHT22;32083;47.360;9.650;2023-08-01T13:44:48;21.50;97.30
46378;DHT22;32083;47.360;9.650;2023-08-01T13:47:14;22.10;96.70
46378;DHT22;32083;47.360;9.650;2023-08-01T13:49:40;22.40;95.80
46378;DHT22;32083;47.360;9.650;2023-08-01T13:52:06;22.70;95.70
46378;DHT22;32083;47.360;9.650;2023-08-01T13:54:32;22.80;94.90
46378;DHT22;32083;47.360;9.650;2023-08-01T13:56:59;22.70;94.70
46378;DHT22;32083;47.360;9.650;2023-08-01T13:59:25;22.60;94.60
46378;DHT22;32083;47.360;9.650;2023-08-01T14:01:52;22.50;94.40
46378;DHT22;32083;47.360;9.650;2023-08-01T14:04:17;22.40;94.20
46378;DHT22;32083;47.360;9.650;2023-08-01T14:06:43;22.40;94.70
46378;DHT22;32083;47.360;9.650;2023-08-01T14:09:09;22.40;94.50
46378;DHT22;32083;47.360;9.650;2023-08-01T14:11:36;22.60;94.40
46378;DHT22;32083;47.360;9.650;2023-08-01T14:14:02;22.60;93.60
46378;DHT22;32083;47.360;9.650;2023-08-01T14:16:29;22.60;94.00
46378;DHT22;32083;47.360;9.650;2023-08-01T14:18:55;22.60;93.60
46378;DHT22;32083;47.360;9.650;2023-08-01T14:21:21;22.90;94.20
46378;DHT22;32083;47.360;9.650;2023-08-01T14:23:47;22.80;94.10
46378;DHT22;32083;47.360;9.650;2023-08-01T14:26:13;22.70;93.80
46378;DHT22;32083;47.360;9.650;2023-08-01T14:28:39;22.50;94.00
46378;DHT22;32083;47.360;9.650;2023-08-01T14:31:05;22.50;93.80
46378;DHT22;32083;47.360;9.650;2023-08-01T14:33:31;22.40;93.40
46378;DHT22;32083;47.360;9.650;2023-08-01T14:35:57;22.40;93.20
46378;DHT22;32083;47.360;9.650;2023-08-01T14:38:23;22.50;93.30
46378;DHT22;32083;47.360;9.650;2023-08-01T14:40:49;22.50;93.50
46378;DHT22;32083;47.360;9.650;2023-08-01T14:43:15;22.80;92.80
46378;DHT22;32083;47.360;9.650;2023-08-01T14:45:41;22.90;92.90
46378;DHT22;32083;47.360;9.650;2023-08-01T14:48:07;22.80;92.90
46378;DHT22;32083;47.360;9.650;2023-08-01T14:50:34;22.70;91.80
46378;DHT22;32083;47.360;9.650;2023-08-01T14:53:01;22.60;92.40
46378;DHT22;32083;47.360;9.650;2023-08-01T14:55:32;22.50;92.20
46378;DHT22;32083;47.360;9.650;2023-08-01T14:57:58;22.40;92.50
46378;DHT22;32083;47.360;9.650;2023-08-01T15:00:23;22.40;92.60
46378;DHT22;32083;47.360;9.650;2023-08-01T15:02:50;22.20;92.40
46378;DHT22;32083;47.360;9.650;2023-08-01T15:05:17;22.10;93.10
46378;DHT22;32083;47.360;9.650;2023-08-01T15:07:43;22.00;92.50
46378;DHT22;32083;47.360;9.650;2023-08-01T15:10:09;22.00;92.40
46378;DHT22;32083;47.360;9.650;2023-08-01T15:12:35;22.00;92.30
46378;DHT22;32083;47.360;9.650;2023-08-01T15:15:01;21.90;92.40
46378;DHT22;32083;47.360;9.650;2023-08-01T15:17:27;21.80;92.40
46378;DHT22;32083;47.360;9.650;2023-08-01T15:19:53;21.70;92.60
46378;DHT22;32083;47.360;9.650;2023-08-01T15:22:20;21.70;92.90
46378;DHT22;32083;47.360;9.650;2023-08-01T15:24:46;21.70;92.90
46378;DHT22;32083;47.360;9.650;2023-08-01T15:27:12;21.60;93.50
46378;DHT22;32083;47.360;9.650;2023-08-01T15:29:39;21.60;93.80
46378;DHT22;32083;47.360;9.650;2023-08-01T15:32:05;21.50;94.60
46378;DHT22;32083;47.360;9.650;2023-08-01T15:34:31;21.50;94.90
46378;DHT22;32083;47.360;9.650;2023-08-01T15:36:57;21.40;95.00
46378;DHT22;32083;47.360;9.650;2023-08-01T15:39:23;21.30;96.00
46378;DHT22;32083;47.360;9.650;2023-08-01T15:41:49;21.20;95.80
46378;DHT22;32083;47.360;9.650;2023-08-01T15:44:15;21.20;96.40
46378;DHT22;32083;47.360;9.650;2023-08-01T15:46:41;21.10;96.70